createdAt,value
2019-06-20T00:00:48.829Z,1002.65
2019-06-20T00:01:48.845Z,1002.64
2019-06-20T00:02:48.804Z,1002.64
2019-06-20T00:03:49.223Z,1002.70
2019-06-20T00:04:48.841Z,1002.78
2019-06-20T00:05:48.791Z,1002.79
2019-06-20T00:06:48.907Z,1002.72
2019-06-20T00:07:48.818Z,1002.68
2019-06-20T00:08:49.181Z,1002.68
2019-06-20T00:09:52.357Z,1002.67
2019-06-20T00:10:48.765Z,1002.75
2019-06-20T00:11:48.746Z,1002.76
2019-06-20T00:13:00.020Z,1002.83
2019-06-20T00:13:49.673Z,1002.89
2019-06-20T00:14:48.740Z,1002.90
2019-06-20T00:15:48.707Z,1002.89
2019-06-20T00:16:48.692Z,1002.89
2019-06-20T00:17:48.754Z,1002.91
2019-06-20T00:18:48.689Z,1002.83
2019-06-20T00:19:48.584Z,1002.98
2019-06-20T00:20:48.593Z,1002.98
2019-06-20T00:21:48.683Z,1003.04
2019-06-20T00:22:48.570Z,1003.15
2019-06-20T00:23:48.568Z,1002.98
2019-06-20T00:24:48.619Z,1002.90
2019-06-20T00:25:48.564Z,1002.71
2019-06-20T00:26:48.552Z,1002.62
2019-06-20T00:27:48.536Z,1002.66
2019-06-20T00:28:48.568Z,1002.61
2019-06-20T00:29:48.494Z,1002.53
2019-06-20T00:30:48.505Z,1002.58
2019-06-20T00:31:48.478Z,1002.57
2019-06-20T00:32:48.476Z,1002.84
2019-06-20T00:33:48.462Z,1002.67
2019-06-20T00:34:48.452Z,1002.32
2019-06-20T00:35:48.472Z,1002.33
2019-06-20T00:36:51.271Z,1002.37
2019-06-20T00:37:48.435Z,1002.38
2019-06-20T00:38:48.420Z,1002.35
2019-06-20T00:39:48.406Z,1002.41
2019-06-20T00:40:48.416Z,1002.30
2019-06-20T00:41:48.351Z,1002.12
2019-06-20T00:42:48.422Z,1002.21
2019-06-20T00:43:48.389Z,1002.25
2019-06-20T00:44:48.375Z,1002.14
2019-06-20T00:45:48.336Z,1002.16
2019-06-20T00:46:48.326Z,1002.20
2019-06-20T00:47:48.446Z,1002.25
2019-06-20T00:48:48.360Z,1002.30
2019-06-20T00:49:48.285Z,1002.21
2019-06-20T00:50:48.299Z,1002.17
2019-06-20T00:51:48.307Z,1002.24
2019-06-20T00:52:49.077Z,1002.24
2019-06-20T00:53:48.253Z,1002.30
2019-06-20T00:54:48.255Z,1002.36
2019-06-20T00:55:48.223Z,1002.38
2019-06-20T00:56:48.256Z,1002.43
2019-06-20T00:57:48.228Z,1002.50
2019-06-20T00:58:48.198Z,1002.58
2019-06-20T00:59:48.174Z,1002.64
2019-06-20T01:00:48.221Z,1002.73
2019-06-20T01:01:48.186Z,1002.80
2019-06-20T01:02:48.173Z,1002.84
2019-06-20T01:03:57.478Z,1002.98
2019-06-20T01:04:57.316Z,1003.14
2019-06-20T01:05:57.244Z,1003.21
2019-06-20T01:06:56.752Z,1003.08
2019-06-20T01:07:57.385Z,1003.07
2019-06-20T01:08:58.594Z,1002.99
2019-06-20T01:09:57.319Z,1002.86
2019-06-20T01:10:57.371Z,1002.94
2019-06-20T01:11:57.897Z,1003.25
2019-06-20T01:12:55.989Z,1003.37
2019-06-20T01:13:57.504Z,1003.50
2019-06-20T01:14:57.584Z,1003.57
2019-06-20T01:15:57.490Z,1003.64
2019-06-20T01:16:48.033Z,1003.58
2019-06-20T01:17:48.051Z,1003.46
2019-06-20T01:18:47.976Z,1003.35
2019-06-20T01:19:47.966Z,1003.23
2019-06-20T01:20:47.997Z,1003.18
2019-06-20T01:21:57.210Z,1003.17
2019-06-20T01:22:47.986Z,1003.15
2019-06-20T01:23:47.986Z,1003.17
2019-06-20T01:24:47.981Z,1003.11
2019-06-20T01:25:47.921Z,1003.10
2019-06-20T01:26:47.892Z,1003.08
2019-06-20T01:27:47.874Z,1003.11
2019-06-20T01:28:47.922Z,1003.15
2019-06-20T01:29:47.923Z,1003.14
2019-06-20T01:30:47.841Z,1003.16
2019-06-20T01:31:47.836Z,1003.15
2019-06-20T01:32:47.817Z,1003.16
2019-06-20T01:33:47.839Z,1003.14
2019-06-20T01:34:47.824Z,1003.13
2019-06-20T01:35:47.795Z,1003.14
2019-06-20T01:36:47.775Z,1003.06
2019-06-20T01:37:47.779Z,1003.03
2019-06-20T01:38:47.795Z,1002.99
2019-06-20T01:39:47.749Z,1002.89
2019-06-20T01:40:47.751Z,1002.90
2019-06-20T01:41:47.734Z,1002.89
2019-06-20T01:42:47.742Z,1002.91
2019-06-20T01:43:50.900Z,1002.84
2019-06-20T01:44:47.707Z,1002.78
2019-06-20T01:45:47.667Z,1002.70
2019-06-20T01:46:47.656Z,1002.68
2019-06-20T01:47:47.660Z,1002.73
2019-06-20T01:48:47.695Z,1002.75
2019-06-20T01:49:47.726Z,1002.79
2019-06-20T01:50:47.612Z,1002.78
2019-06-20T01:51:47.618Z,1002.80
2019-06-20T01:52:47.612Z,1002.80
2019-06-20T01:53:47.614Z,1002.81
2019-06-20T01:54:47.615Z,1002.78
2019-06-20T01:55:47.612Z,1002.78
2019-06-20T01:56:47.581Z,1002.81
2019-06-20T01:57:47.641Z,1002.80
2019-06-20T01:58:47.548Z,1002.79
2019-06-20T01:59:47.562Z,1002.85
2019-06-20T02:00:47.545Z,1002.82
2019-06-20T02:01:47.494Z,1002.81
2019-06-20T02:02:47.502Z,1002.76
2019-06-20T02:03:47.495Z,1002.78
2019-06-20T02:04:47.501Z,1002.76
2019-06-20T02:05:47.498Z,1002.75
2019-06-20T02:06:47.454Z,1002.73
2019-06-20T02:07:47.453Z,1002.75
2019-06-20T02:08:47.435Z,1002.71
2019-06-20T02:09:47.432Z,1002.70
2019-06-20T02:10:47.444Z,1002.72
2019-06-20T02:11:47.446Z,1002.74
2019-06-20T02:12:47.387Z,1002.80
2019-06-20T02:13:47.404Z,1002.77
2019-06-20T02:14:47.389Z,1002.76
2019-06-20T02:15:47.419Z,1002.72
2019-06-20T02:16:47.410Z,1002.68
2019-06-20T02:17:47.350Z,1002.65
2019-06-20T02:18:47.342Z,1002.67
2019-06-20T02:19:47.330Z,1002.63
2019-06-20T02:20:47.321Z,1002.68
2019-06-20T02:21:47.300Z,1002.68
2019-06-20T02:22:47.310Z,1002.63
2019-06-20T02:23:47.324Z,1002.63
2019-06-20T02:24:47.307Z,1002.62
2019-06-20T02:25:47.289Z,1002.60
2019-06-20T02:26:47.272Z,1002.61
2019-06-20T02:27:47.269Z,1002.60
2019-06-20T02:28:47.219Z,1002.59
2019-06-20T02:29:47.222Z,1002.60
2019-06-20T02:30:47.255Z,1002.62
2019-06-20T02:31:47.213Z,1002.62
2019-06-20T02:32:47.283Z,1002.63
2019-06-20T02:33:47.175Z,1002.68
2019-06-20T02:34:47.218Z,1002.66
2019-06-20T02:35:47.158Z,1002.62
2019-06-20T02:36:47.161Z,1002.60
2019-06-20T02:37:47.151Z,1002.59
2019-06-20T02:38:47.139Z,1002.58
2019-06-20T02:39:47.106Z,1002.59
2019-06-20T02:40:47.119Z,1002.59
2019-06-20T02:41:47.156Z,1002.62
2019-06-20T02:42:47.074Z,1002.60
2019-06-20T02:43:47.094Z,1002.63
2019-06-20T02:44:47.073Z,1002.64
2019-06-20T02:45:47.045Z,1002.65
2019-06-20T02:46:47.024Z,1002.74
2019-06-20T02:47:47.125Z,1002.82
2019-06-20T02:48:47.011Z,1002.85
2019-06-20T02:49:47.017Z,1002.91
2019-06-20T02:50:47.018Z,1002.97
2019-06-20T02:51:47.004Z,1003.01
2019-06-20T02:52:46.996Z,1003.06
2019-06-20T02:53:46.955Z,1003.07
2019-06-20T02:54:46.979Z,1003.06
2019-06-20T02:55:46.946Z,1003.12
2019-06-20T02:56:47.002Z,1003.08
2019-06-20T02:57:46.931Z,1003.08
2019-06-20T02:58:46.928Z,1003.09
2019-06-20T02:59:46.895Z,1003.09
2019-06-20T03:00:46.906Z,1003.06
2019-06-20T03:01:46.886Z,1003.07
2019-06-20T03:02:46.857Z,1003.10
2019-06-20T03:03:46.871Z,1003.10
2019-06-20T03:04:46.832Z,1003.16
2019-06-20T03:05:46.887Z,1003.20
2019-06-20T03:06:46.822Z,1003.19
2019-06-20T03:07:46.795Z,1003.19
2019-06-20T03:08:46.806Z,1003.26
2019-06-20T03:09:46.833Z,1003.32
2019-06-20T03:10:46.791Z,1003.40
2019-06-20T03:11:46.760Z,1003.49
2019-06-20T03:12:46.790Z,1003.56
2019-06-20T03:13:46.755Z,1003.67
2019-06-20T03:14:46.729Z,1003.72
2019-06-20T03:15:49.894Z,1003.70
2019-06-20T03:16:46.740Z,1003.64
2019-06-20T03:17:46.715Z,1003.68
2019-06-20T03:18:46.712Z,1003.62
2019-06-20T03:19:46.707Z,1003.59
2019-06-20T03:20:46.670Z,1003.61
2019-06-20T03:21:46.681Z,1003.52
2019-06-20T03:22:46.652Z,1003.51
2019-06-20T03:23:46.631Z,1003.47
2019-06-20T03:24:46.658Z,1003.52
2019-06-20T03:25:46.605Z,1003.52
2019-06-20T03:26:46.639Z,1003.52
2019-06-20T03:27:46.599Z,1003.51
2019-06-20T03:28:46.590Z,1003.51
2019-06-20T03:29:46.596Z,1003.46
2019-06-20T03:30:46.575Z,1003.46
2019-06-20T03:31:46.577Z,1003.44
2019-06-20T03:32:46.558Z,1003.42
2019-06-20T03:33:46.521Z,1003.40
2019-06-20T03:34:46.517Z,1003.34
2019-06-20T03:35:46.499Z,1003.24
2019-06-20T03:36:46.508Z,1003.20
2019-06-20T03:37:50.022Z,1003.18
2019-06-20T03:38:46.487Z,1003.18
2019-06-20T03:39:46.447Z,1003.17
2019-06-20T03:40:46.464Z,1003.19
2019-06-20T03:41:46.446Z,1003.19
2019-06-20T03:42:46.443Z,1003.22
2019-06-20T03:43:46.467Z,1003.21
2019-06-20T03:45:01.218Z,1003.27
2019-06-20T03:45:47.484Z,1003.24
2019-06-20T03:46:46.402Z,1003.21
2019-06-20T03:47:46.396Z,1003.22
2019-06-20T03:48:46.369Z,1003.23
2019-06-20T03:49:46.371Z,1003.21
2019-06-20T03:50:46.347Z,1003.23
2019-06-20T03:51:46.331Z,1003.20
2019-06-20T03:52:46.386Z,1003.21
2019-06-20T03:53:46.343Z,1003.22
2019-06-20T03:54:47.053Z,1003.29
2019-06-20T03:55:46.330Z,1003.36
2019-06-20T03:56:46.300Z,1003.38
2019-06-20T03:57:46.283Z,1003.34
2019-06-20T03:58:46.297Z,1003.34
2019-06-20T03:59:46.263Z,1003.32
2019-06-20T04:00:46.252Z,1003.29
2019-06-20T04:01:49.126Z,1003.28
2019-06-20T04:02:46.227Z,1003.25
2019-06-20T04:03:46.249Z,1003.27
2019-06-20T04:04:46.193Z,1003.22
2019-06-20T04:05:46.213Z,1003.24
2019-06-20T04:06:46.215Z,1003.19
2019-06-20T04:07:46.222Z,1003.19
2019-06-20T04:08:46.185Z,1003.17
2019-06-20T04:09:55.570Z,1003.12
2019-06-20T04:10:46.107Z,1003.12
2019-06-20T04:11:46.128Z,1003.06
2019-06-20T04:12:46.108Z,1003.09
2019-06-20T04:13:46.115Z,1003.11
2019-06-20T04:14:48.994Z,1003.09
2019-06-20T04:15:46.074Z,1003.09
2019-06-20T04:16:46.068Z,1003.09
2019-06-20T04:17:46.036Z,1003.00
2019-06-20T04:18:46.102Z,1003.03
2019-06-20T04:19:46.030Z,1003.00
2019-06-20T04:20:46.045Z,1003.00
2019-06-20T04:21:46.033Z,1003.01
2019-06-20T04:22:46.023Z,1003.02
2019-06-20T04:23:46.034Z,1003.00
2019-06-20T04:24:45.972Z,1003.05
2019-06-20T04:25:45.966Z,1003.08
2019-06-20T04:26:45.955Z,1003.08
2019-06-20T04:27:45.939Z,1003.09
2019-06-20T04:28:45.941Z,1003.10
2019-06-20T04:29:45.960Z,1003.11
2019-06-20T04:30:45.968Z,1003.06
2019-06-20T04:31:45.932Z,1003.07
2019-06-20T04:32:45.938Z,1003.09
2019-06-20T04:33:45.897Z,1003.15
2019-06-20T04:34:45.888Z,1003.14
2019-06-20T04:35:45.861Z,1003.13
2019-06-20T04:36:48.074Z,1003.16
2019-06-20T04:37:45.930Z,1003.20
2019-06-20T04:38:45.815Z,1003.23
2019-06-20T04:39:45.813Z,1003.26
2019-06-20T04:40:45.791Z,1003.31
2019-06-20T04:41:45.813Z,1003.34
2019-06-20T04:42:45.792Z,1003.31
2019-06-20T04:43:45.802Z,1003.36
2019-06-20T04:44:45.762Z,1003.36
2019-06-20T04:45:45.784Z,1003.36
2019-06-20T04:46:45.768Z,1003.46
2019-06-20T04:47:45.749Z,1003.49
2019-06-20T04:48:45.737Z,1003.51
2019-06-20T04:49:45.705Z,1003.53
2019-06-20T04:50:45.694Z,1003.45
2019-06-20T04:51:45.716Z,1003.49
2019-06-20T04:52:45.683Z,1003.45
2019-06-20T04:53:45.679Z,1003.46
2019-06-20T04:54:45.723Z,1003.45
2019-06-20T04:55:45.665Z,1003.46
2019-06-20T04:56:45.665Z,1003.47
2019-06-20T04:57:45.726Z,1003.45
2019-06-20T04:58:45.662Z,1003.37
2019-06-20T04:59:45.653Z,1003.35
2019-06-20T05:00:45.609Z,1003.34
2019-06-20T05:01:45.772Z,1003.35
2019-06-20T05:02:45.597Z,1003.31
2019-06-20T05:03:45.844Z,1003.38
2019-06-20T05:04:46.494Z,1003.37
2019-06-20T05:05:45.554Z,1003.41
2019-06-20T05:06:45.532Z,1003.40
2019-06-20T05:07:45.554Z,1003.42
2019-06-20T05:08:45.535Z,1003.34
2019-06-20T05:09:45.564Z,1003.30
2019-06-20T05:10:45.514Z,1003.32
2019-06-20T05:11:45.494Z,1003.33
2019-06-20T05:12:45.475Z,1003.32
2019-06-20T05:13:45.527Z,1003.37
2019-06-20T05:14:45.515Z,1003.38
2019-06-20T05:15:52.566Z,1003.43
2019-06-20T05:16:46.451Z,1003.46
2019-06-20T05:17:45.466Z,1003.44
2019-06-20T05:18:45.440Z,1003.45
2019-06-20T05:19:45.516Z,1003.48
2019-06-20T05:20:45.394Z,1003.48
2019-06-20T05:21:45.417Z,1003.51
2019-06-20T05:22:45.759Z,1003.53
2019-06-20T05:23:45.388Z,1003.54
2019-06-20T05:24:45.437Z,1003.54
2019-06-20T05:25:45.390Z,1003.54
2019-06-20T05:26:45.327Z,1003.52
2019-06-20T05:27:45.999Z,1003.57
2019-06-20T05:28:45.383Z,1003.61
2019-06-20T05:29:45.355Z,1003.58
2019-06-20T05:30:45.353Z,1003.60
2019-06-20T05:31:45.292Z,1003.63
2019-06-20T05:32:45.444Z,1003.58
2019-06-20T05:33:45.268Z,1003.52
2019-06-20T05:34:45.248Z,1003.50
2019-06-20T05:35:45.254Z,1003.51
2019-06-20T05:36:45.245Z,1003.48
2019-06-20T05:37:45.232Z,1003.38
2019-06-20T05:38:45.209Z,1003.34
2019-06-20T05:39:45.211Z,1003.35
2019-06-20T05:40:45.181Z,1003.34
2019-06-20T05:41:45.206Z,1003.30
2019-06-20T05:42:45.191Z,1003.30
2019-06-20T05:43:45.143Z,1003.31
2019-06-20T05:44:45.161Z,1003.28
2019-06-20T05:45:48.529Z,1003.25
2019-06-20T05:46:45.172Z,1003.20
2019-06-20T05:47:55.623Z,1003.15
2019-06-20T05:48:45.120Z,1003.19
2019-06-20T05:49:45.121Z,1003.21
2019-06-20T05:50:45.102Z,1003.22
2019-06-20T05:51:45.074Z,1003.25
2019-06-20T05:52:45.160Z,1003.29
2019-06-20T05:53:54.165Z,1003.27
2019-06-20T05:54:45.018Z,1003.32
2019-06-20T05:55:45.038Z,1003.34
2019-06-20T05:56:44.995Z,1003.36
2019-06-20T05:57:45.032Z,1003.43
2019-06-20T05:58:45.974Z,1003.45
2019-06-20T05:59:45.035Z,1003.50
2019-06-20T06:00:45.075Z,1003.58
2019-06-20T06:01:44.958Z,1003.66
2019-06-20T06:02:54.221Z,1003.68
2019-06-20T06:03:44.925Z,1003.70
2019-06-20T06:04:44.943Z,1003.68
2019-06-20T06:05:44.924Z,1003.68
2019-06-20T06:06:44.999Z,1003.66
2019-06-20T06:07:44.891Z,1003.70
2019-06-20T06:08:44.982Z,1003.71
2019-06-20T06:09:45.718Z,1003.74
2019-06-20T06:10:44.863Z,1003.75
2019-06-20T06:11:44.858Z,1003.77
2019-06-20T06:12:46.325Z,1003.83
2019-06-20T06:13:44.821Z,1003.87
2019-06-20T06:14:44.823Z,1003.90
2019-06-20T06:15:44.890Z,1003.95
2019-06-20T06:16:44.785Z,1004.04
2019-06-20T06:17:44.800Z,1004.08
2019-06-20T06:18:44.917Z,1004.10
2019-06-20T06:19:44.782Z,1004.20
2019-06-20T06:20:45.117Z,1004.25
2019-06-20T06:21:44.803Z,1004.36
2019-06-20T06:22:44.943Z,1004.41
2019-06-20T06:23:44.746Z,1004.47
2019-06-20T06:24:44.715Z,1004.64
2019-06-20T06:25:44.849Z,1004.86
2019-06-20T06:26:44.813Z,1005.10
2019-06-20T06:27:44.713Z,1005.36
2019-06-20T06:28:44.691Z,1005.66
2019-06-20T06:29:44.699Z,1005.71
2019-06-20T06:30:44.658Z,1005.77
2019-06-20T06:31:44.695Z,1005.77
2019-06-20T06:32:44.667Z,1005.67
2019-06-20T06:33:44.647Z,1005.51
2019-06-20T06:34:44.605Z,1005.61
2019-06-20T06:35:44.588Z,1005.80
2019-06-20T06:36:44.657Z,1005.86
2019-06-20T06:37:44.587Z,1005.80
2019-06-20T06:38:44.639Z,1005.70
2019-06-20T06:39:44.726Z,1005.58
2019-06-20T06:40:44.558Z,1005.54
2019-06-20T06:41:44.768Z,1005.75
2019-06-20T06:42:44.621Z,1005.77
2019-06-20T06:43:44.529Z,1005.69
2019-06-20T06:44:44.504Z,1005.71
2019-06-20T06:45:44.506Z,1005.68
2019-06-20T06:46:53.276Z,1005.69
2019-06-20T06:47:45.533Z,1005.70
2019-06-20T06:48:44.523Z,1005.70
2019-06-20T06:49:45.146Z,1005.75
2019-06-20T06:50:44.502Z,1005.71
2019-06-20T06:51:44.435Z,1005.74
2019-06-20T06:52:44.502Z,1005.71
2019-06-20T06:53:44.387Z,1005.68
2019-06-20T06:54:44.428Z,1005.68
2019-06-20T06:55:44.405Z,1005.64
2019-06-20T06:56:44.378Z,1005.63
2019-06-20T06:57:44.459Z,1005.74
2019-06-20T06:58:44.363Z,1005.64
2019-06-20T06:59:44.405Z,1005.60
2019-06-20T07:00:44.333Z,1005.60
2019-06-20T07:01:44.345Z,1005.57
2019-06-20T07:02:44.322Z,1005.53
2019-06-20T07:03:44.347Z,1005.48
2019-06-20T07:04:44.297Z,1005.55
2019-06-20T07:05:44.294Z,1005.53
2019-06-20T07:06:45.129Z,1005.52
2019-06-20T07:07:44.297Z,1005.47
2019-06-20T07:08:44.288Z,1005.44
2019-06-20T07:09:44.254Z,1005.33
2019-06-20T07:10:44.231Z,1005.30
2019-06-20T07:11:44.240Z,1005.24
2019-06-20T07:12:44.232Z,1005.29
2019-06-20T07:13:44.237Z,1005.32
2019-06-20T07:14:44.192Z,1005.34
2019-06-20T07:15:44.187Z,1005.36
2019-06-20T07:16:59.460Z,1005.33
2019-06-20T07:17:45.503Z,1005.35
2019-06-20T07:18:44.220Z,1005.40
2019-06-20T07:19:44.122Z,1005.46
2019-06-20T07:20:44.149Z,1005.42
2019-06-20T07:21:44.137Z,1005.37
2019-06-20T07:22:44.331Z,1005.33
2019-06-20T07:23:44.135Z,1005.33
2019-06-20T07:24:44.285Z,1005.39
2019-06-20T07:25:44.097Z,1005.40
2019-06-20T07:26:44.123Z,1005.39
2019-06-20T07:27:44.069Z,1005.38
2019-06-20T07:28:44.047Z,1005.34
2019-06-20T07:29:44.073Z,1005.29
2019-06-20T07:30:44.005Z,1005.29
2019-06-20T07:31:44.038Z,1005.35
2019-06-20T07:32:43.988Z,1005.37
2019-06-20T07:33:44.174Z,1005.34
2019-06-20T07:34:44.042Z,1005.32
2019-06-20T07:35:44.211Z,1005.25
2019-06-20T07:36:43.959Z,1005.32
2019-06-20T07:37:43.943Z,1005.30
2019-06-20T07:38:44.053Z,1005.32
2019-06-20T07:39:43.952Z,1005.39
2019-06-20T07:40:43.916Z,1005.39
2019-06-20T07:41:45.203Z,1005.46
2019-06-20T07:42:43.948Z,1005.49
2019-06-20T07:43:43.887Z,1005.44
2019-06-20T07:44:43.984Z,1005.40
2019-06-20T07:46:01.194Z,1005.40
2019-06-20T07:46:44.930Z,1005.39
2019-06-20T07:47:43.900Z,1005.39
2019-06-20T07:48:44.210Z,1005.38
2019-06-20T07:49:44.646Z,1005.32
2019-06-20T07:50:43.977Z,1005.29
2019-06-20T07:51:43.810Z,1005.26
2019-06-20T07:52:57.763Z,1005.25
2019-06-20T07:53:44.774Z,1005.23
2019-06-20T07:54:43.847Z,1005.21
2019-06-20T07:55:43.805Z,1005.17
2019-06-20T07:56:43.797Z,1005.09
2019-06-20T07:57:43.787Z,1005.13
2019-06-20T07:58:43.741Z,1005.11
2019-06-20T07:59:43.712Z,1005.13
2019-06-20T08:00:43.706Z,1005.15
2019-06-20T08:01:43.756Z,1005.17
2019-06-20T08:02:43.705Z,1005.20
2019-06-20T08:03:45.261Z,1005.26
2019-06-20T08:04:43.669Z,1005.25
2019-06-20T08:05:43.651Z,1005.25
2019-06-20T08:06:43.733Z,1005.25
2019-06-20T08:07:43.709Z,1005.18
2019-06-20T08:08:43.692Z,1005.24
2019-06-20T08:09:45.094Z,1005.19
2019-06-20T08:10:43.594Z,1005.20
2019-06-20T08:11:43.595Z,1005.19
2019-06-20T08:12:43.604Z,1005.17
2019-06-20T08:13:43.589Z,1005.13
2019-06-20T08:14:43.553Z,1005.09
2019-06-20T08:15:43.584Z,1005.06
2019-06-20T08:16:43.566Z,1005.05
2019-06-20T08:17:43.567Z,1005.10
2019-06-20T08:18:43.537Z,1005.07
2019-06-20T08:19:43.534Z,1005.11
2019-06-20T08:20:43.563Z,1005.17
2019-06-20T08:21:44.179Z,1005.17
2019-06-20T08:22:43.526Z,1005.19
2019-06-20T08:23:43.486Z,1005.20
2019-06-20T08:24:43.497Z,1005.19
2019-06-20T08:25:43.448Z,1005.14
2019-06-20T08:26:43.485Z,1005.18
2019-06-20T08:27:43.422Z,1005.15
2019-06-20T08:28:43.463Z,1005.12
2019-06-20T08:29:43.390Z,1005.15
2019-06-20T08:30:43.396Z,1005.09
2019-06-20T08:31:43.386Z,1005.12
2019-06-20T08:32:43.367Z,1005.09
2019-06-20T08:33:43.369Z,1005.13
2019-06-20T08:34:43.547Z,1005.07
2019-06-20T08:35:43.365Z,1005.10
2019-06-20T08:36:43.314Z,1005.03
2019-06-20T08:37:43.494Z,1004.97
2019-06-20T08:38:43.374Z,1005.02
2019-06-20T08:39:43.351Z,1005.00
2019-06-20T08:40:43.281Z,1004.96
2019-06-20T08:41:43.268Z,1004.95
2019-06-20T08:42:43.520Z,1004.97
2019-06-20T08:43:43.333Z,1004.94
2019-06-20T08:44:43.385Z,1004.98
2019-06-20T08:45:43.273Z,1005.07
2019-06-20T08:46:43.226Z,1005.06
2019-06-20T08:47:43.354Z,1005.06
2019-06-20T08:48:43.293Z,1005.05
2019-06-20T08:49:43.193Z,1005.03
2019-06-20T08:50:43.220Z,1005.07
2019-06-20T08:51:43.220Z,1005.11
2019-06-20T08:52:43.195Z,1005.21
2019-06-20T08:53:43.171Z,1005.26
2019-06-20T08:54:43.154Z,1005.28
2019-06-20T08:55:43.204Z,1005.28
2019-06-20T08:56:43.152Z,1005.34
2019-06-20T08:57:43.352Z,1005.22
2019-06-20T08:58:43.122Z,1005.20
2019-06-20T08:59:43.110Z,1005.20
2019-06-20T09:00:43.096Z,1005.24
2019-06-20T09:01:43.815Z,1005.27
2019-06-20T09:02:43.100Z,1005.31
2019-06-20T09:03:43.030Z,1005.31
2019-06-20T09:04:43.049Z,1005.36
2019-06-20T09:05:43.032Z,1005.38
2019-06-20T09:06:43.043Z,1005.35
2019-06-20T09:07:43.782Z,1005.34
2019-06-20T09:08:43.011Z,1005.37
2019-06-20T09:09:43.003Z,1005.34
2019-06-20T09:10:43.008Z,1005.42
2019-06-20T09:11:42.946Z,1005.38
2019-06-20T09:12:42.976Z,1005.36
2019-06-20T09:13:43.005Z,1005.31
2019-06-20T09:14:42.937Z,1005.33
2019-06-20T09:15:42.911Z,1005.30
2019-06-20T09:16:42.938Z,1005.36
2019-06-20T09:17:42.917Z,1005.36
2019-06-20T09:18:43.263Z,1005.33
2019-06-20T09:19:42.880Z,1005.34
2019-06-20T09:20:42.953Z,1005.37
2019-06-20T09:21:43.813Z,1005.33
2019-06-20T09:22:42.917Z,1005.34
2019-06-20T09:23:43.061Z,1005.32
2019-06-20T09:24:42.870Z,1005.32
2019-06-20T09:25:42.822Z,1005.30
2019-06-20T09:26:42.833Z,1005.33
2019-06-20T09:27:42.871Z,1005.30
2019-06-20T09:28:42.940Z,1005.33
2019-06-20T09:29:42.917Z,1005.34
2019-06-20T09:30:42.820Z,1005.28
2019-06-20T09:31:42.873Z,1005.26
2019-06-20T09:32:42.841Z,1005.22
2019-06-20T09:33:42.750Z,1005.21
2019-06-20T09:34:42.813Z,1005.26
2019-06-20T09:35:42.699Z,1005.26
2019-06-20T09:36:42.908Z,1005.35
2019-06-20T09:37:43.000Z,1005.37
2019-06-20T09:38:43.453Z,1005.44
2019-06-20T09:39:42.665Z,1005.49
2019-06-20T09:40:42.668Z,1005.54
2019-06-20T09:41:42.770Z,1005.61
2019-06-20T09:42:43.147Z,1005.60
2019-06-20T09:43:42.755Z,1005.59
2019-06-20T09:44:42.679Z,1005.56
2019-06-20T09:45:42.604Z,1005.57
2019-06-20T09:46:42.861Z,1005.61
2019-06-20T09:47:42.783Z,1005.65
2019-06-20T09:48:42.899Z,1005.61
2019-06-20T09:49:42.682Z,1005.65
2019-06-20T09:50:42.951Z,1005.67
2019-06-20T09:51:42.876Z,1005.73
2019-06-20T09:52:43.207Z,1005.71
2019-06-20T09:53:42.970Z,1005.71
2019-06-20T09:54:42.587Z,1005.68
2019-06-20T09:55:42.515Z,1005.66
2019-06-20T09:56:42.822Z,1005.67
2019-06-20T09:57:54.043Z,1005.70
2019-06-20T09:58:42.489Z,1005.71
2019-06-20T10:00:02.713Z,1005.69
2019-06-20T10:00:43.500Z,1005.66
2019-06-20T10:03:34.090Z,1005.78
2019-06-20T10:07:13.944Z,1005.81
2019-06-20T10:08:22.077Z,1005.80
2019-06-20T10:12:06.180Z,1005.77
2019-06-20T10:18:01.012Z,1005.90
2019-06-20T10:19:00.852Z,1005.87
2019-06-20T10:20:00.901Z,1005.83
2019-06-20T10:21:00.859Z,1005.85
2019-06-20T10:22:01.208Z,1005.89
2019-06-20T10:23:00.739Z,1005.82
2019-06-20T10:24:00.682Z,1005.84
2019-06-20T10:25:00.688Z,1005.87
2019-06-20T10:26:00.723Z,1005.88
2019-06-20T10:27:00.717Z,1005.92
2019-06-20T10:28:01.238Z,1006.02
2019-06-20T10:29:00.689Z,1005.97
2019-06-20T10:30:13.540Z,1005.94
2019-06-20T10:31:01.800Z,1005.95
2019-06-20T10:32:00.647Z,1005.99
2019-06-20T10:33:00.638Z,1005.95
2019-06-20T10:34:00.618Z,1005.99
2019-06-20T10:35:00.955Z,1005.94
2019-06-20T10:36:00.611Z,1005.94
2019-06-20T10:37:00.617Z,1005.94
2019-06-20T10:38:00.754Z,1005.90
2019-06-20T10:39:00.598Z,1005.89
2019-06-20T10:40:00.593Z,1005.98
2019-06-20T10:41:00.566Z,1005.99
2019-06-20T10:42:00.683Z,1005.93
2019-06-20T10:43:00.548Z,1005.98
2019-06-20T10:44:00.501Z,1005.93
2019-06-20T10:45:00.530Z,1005.91
2019-06-20T10:46:00.488Z,1005.90
2019-06-20T10:47:00.478Z,1005.86
2019-06-20T10:48:00.442Z,1005.93
2019-06-20T10:49:00.588Z,1005.90
2019-06-20T10:50:00.471Z,1005.86
2019-06-20T10:51:00.412Z,1005.86
2019-06-20T10:52:00.592Z,1005.85
2019-06-20T10:53:00.442Z,1005.84
2019-06-20T10:54:00.396Z,1005.89
2019-06-20T10:55:00.560Z,1005.92
2019-06-20T10:56:00.370Z,1005.94
2019-06-20T10:57:00.558Z,1005.94
2019-06-20T10:58:00.404Z,1005.99
2019-06-20T10:59:00.326Z,1005.94
2019-06-20T11:00:00.307Z,1005.94
2019-06-20T11:01:00.370Z,1005.95
2019-06-20T11:02:00.657Z,1005.92
2019-06-20T11:03:00.409Z,1005.89
2019-06-20T11:04:00.336Z,1005.94
2019-06-20T11:05:00.415Z,1005.91
2019-06-20T11:06:00.285Z,1005.90
2019-06-20T11:07:00.242Z,1005.94
2019-06-20T11:08:00.469Z,1005.93
2019-06-20T11:09:00.252Z,1005.89
2019-06-20T11:10:00.366Z,1005.89
2019-06-20T11:11:00.249Z,1005.88
2019-06-20T11:12:01.359Z,1005.90
2019-06-20T11:13:00.211Z,1005.92
2019-06-20T11:14:00.177Z,1005.90
2019-06-20T11:15:00.535Z,1005.87
2019-06-20T11:16:00.301Z,1005.86
2019-06-20T11:17:00.157Z,1005.85
2019-06-20T11:18:00.159Z,1005.87
2019-06-20T11:19:00.160Z,1005.94
2019-06-20T11:20:00.176Z,1005.92
2019-06-20T11:21:00.100Z,1005.87
2019-06-20T11:22:00.122Z,1005.84
2019-06-20T11:23:00.328Z,1005.80
2019-06-20T11:24:00.142Z,1005.74
2019-06-20T11:25:00.156Z,1005.72
2019-06-20T11:26:00.229Z,1005.70
2019-06-20T11:27:00.035Z,1005.73
2019-06-20T11:27:59.999Z,1005.79
2019-06-20T11:29:00.019Z,1005.76
2019-06-20T11:30:00.050Z,1005.74
2019-06-20T11:31:00.582Z,1005.79
2019-06-20T11:31:59.962Z,1005.81
2019-06-20T11:32:59.954Z,1005.77
2019-06-20T11:33:59.954Z,1005.77
2019-06-20T11:34:59.962Z,1005.79
2019-06-20T11:35:59.967Z,1005.78
2019-06-20T11:36:59.989Z,1005.75
2019-06-20T11:37:59.942Z,1005.78
2019-06-20T11:38:59.933Z,1005.79
2019-06-20T11:39:59.904Z,1005.72
2019-06-20T11:40:59.951Z,1005.73
2019-06-20T11:41:59.919Z,1005.75
2019-06-20T11:42:59.864Z,1005.69
2019-06-20T11:43:59.865Z,1005.74
2019-06-20T11:44:59.855Z,1005.69
2019-06-20T11:45:59.841Z,1005.79
2019-06-20T11:46:59.844Z,1005.73
2019-06-20T11:47:59.844Z,1005.76
2019-06-20T11:48:59.803Z,1005.74
2019-06-20T11:49:59.852Z,1005.78
2019-06-20T11:50:59.790Z,1005.76
2019-06-20T11:51:59.861Z,1005.76
2019-06-20T11:52:59.765Z,1005.79
2019-06-20T11:53:59.786Z,1005.83
2019-06-20T11:54:59.720Z,1005.84
2019-06-20T11:55:59.725Z,1005.86
2019-06-20T11:56:59.761Z,1005.83
2019-06-20T11:57:59.730Z,1005.80
2019-06-20T11:58:59.685Z,1005.81
2019-06-20T11:59:59.679Z,1005.83
2019-06-20T12:01:03.943Z,1005.84
2019-06-20T12:02:00.024Z,1005.84
2019-06-20T12:02:59.709Z,1005.83
2019-06-20T12:03:59.653Z,1005.79
2019-06-20T12:04:59.652Z,1005.86
2019-06-20T12:05:59.658Z,1005.94
2019-06-20T12:07:00.528Z,1005.94
2019-06-20T12:07:59.653Z,1005.91
2019-06-20T12:08:59.595Z,1005.84
2019-06-20T12:09:59.733Z,1005.84
2019-06-20T12:10:59.575Z,1005.84
2019-06-20T12:11:59.568Z,1005.83
2019-06-20T12:12:59.581Z,1005.86
2019-06-20T12:13:59.562Z,1005.78
2019-06-20T12:14:59.511Z,1005.80
2019-06-20T12:15:59.585Z,1005.83
2019-06-20T12:16:59.507Z,1005.83
2019-06-20T12:17:59.534Z,1005.86